Portada
METAR-TAF:

METAR-TAF

Aeroports :

Lleida-Alguaire

Lleida, Espanya

latitud: 41-43-40N, longitud: 000-32-09E, altitud: 350 m

Observació

L'informe es va fer fa 31 minuts, a les 20:30 UTC
Vent 19 kt del Oest
Temperatura 4°C
Humitat 87%
Pressió 1007 hPa
Visibilitat 10 km o més

METAR: LEDA 222030Z AUTO 26019KT 9999 NCD 04/02 Q1007

Hora: 22:01 (21:01 UTC)


TAF: manca

Observacions i pronòstics meteorològics de més de 4000 aeroports (METAR i TAF).

Les estacions disponibles són els punts grocs i vermells al mapa.

Posi el ratolí al punt desitjat per veure el nom de l'estació.

Feu clic per veure les observacions i els pronòstics meteorològics.

Per canviar el mapa: feu clic els botons verds amb una creu de color negre per apropar; al botó verd amb un guió per allunyar la imatge; o en les fletxes verdes per a mapes adjacents.


METAR-TAF: